createdAt,value
2023-01-13T00:01:28.964Z,15.48
2023-01-13T00:03:57.188Z,16.13
2023-01-13T00:06:26.042Z,15.23
2023-01-13T00:08:54.637Z,16.60
2023-01-13T00:11:22.620Z,18.08
2023-01-13T00:13:50.095Z,19.85
2023-01-13T00:16:19.461Z,20.15
2023-01-13T00:18:48.408Z,19.90
2023-01-13T00:21:23.215Z,18.85
2023-01-13T00:23:54.117Z,20.15
2023-01-13T00:26:25.787Z,20.75
2023-01-13T00:28:58.628Z,18.30
2023-01-13T00:31:28.240Z,19.95
2023-01-13T00:34:01.003Z,19.85
2023-01-13T00:36:29.523Z,19.33
2023-01-13T00:38:57.947Z,20.15
2023-01-13T00:41:27.566Z,17.00
2023-01-13T00:43:55.066Z,16.40
2023-01-13T00:46:23.004Z,15.45
2023-01-13T00:48:51.571Z,15.10
2023-01-13T00:53:51.945Z,16.42
2023-01-13T00:56:40.795Z,13.52
2023-01-13T00:59:13.708Z,13.73
2023-01-13T01:01:41.996Z,17.88
2023-01-13T01:04:09.509Z,19.40
2023-01-13T01:06:36.912Z,17.70
2023-01-13T01:09:05.572Z,17.05
2023-01-13T01:14:03.621Z,16.60
2023-01-13T01:16:33.633Z,18.77
2023-01-13T01:19:01.959Z,18.85
2023-01-13T01:21:29.760Z,18.42
2023-01-13T01:24:02.341Z,18.02
2023-01-13T01:26:32.049Z,18.00
2023-01-13T01:28:59.859Z,17.10
2023-01-13T01:31:31.678Z,18.33
2023-01-13T01:34:01.109Z,17.75
2023-01-13T01:36:30.313Z,17.33
2023-01-13T01:38:59.580Z,16.75
2023-01-13T01:41:32.562Z,15.93
2023-01-13T01:44:43.630Z,16.13
2023-01-13T01:47:16.152Z,14.32
2023-01-13T01:49:46.532Z,15.00
2023-01-13T01:52:34.731Z,15.80
2023-01-13T01:55:10.684Z,16.25
2023-01-13T01:57:46.806Z,15.23
2023-01-13T02:00:14.899Z,15.93
2023-01-13T02:02:46.652Z,16.77
2023-01-13T02:05:14.578Z,16.38
2023-01-13T02:07:45.727Z,14.70
2023-01-13T02:10:19.451Z,13.48
2023-01-13T02:12:49.032Z,15.25
2023-01-13T02:15:27.797Z,14.60
2023-01-13T02:18:16.010Z,13.05
2023-01-13T02:21:21.164Z,13.55
2023-01-13T02:24:35.032Z,11.85
2023-01-13T02:27:36.747Z,11.82
2023-01-13T02:30:48.518Z,12.73
2023-01-13T02:33:34.355Z,11.82
2023-01-13T02:36:49.204Z,11.18
2023-01-13T02:39:30.035Z,12.75
2023-01-13T02:42:30.940Z,11.98
2023-01-13T02:45:11.217Z,13.35
2023-01-13T02:47:44.159Z,12.75
2023-01-13T02:50:18.036Z,12.10
2023-01-13T02:52:54.327Z,13.00
2023-01-13T02:55:42.877Z,11.15
2023-01-13T02:58:16.811Z,11.57
2023-01-13T03:00:46.576Z,12.73
2023-01-13T03:03:14.225Z,12.93
2023-01-13T03:05:46.311Z,14.18
2023-01-13T03:08:53.517Z,10.60
2023-01-13T03:11:21.886Z,10.85
2023-01-13T03:14:04.784Z,10.07
2023-01-13T03:16:49.300Z,9.52
2023-01-13T03:19:29.386Z,11.05
2023-01-13T03:22:19.557Z,9.40
2023-01-13T03:24:56.614Z,9.07
2023-01-13T03:27:41.696Z,28.23
2023-01-13T03:30:21.875Z,30.17
2023-01-13T03:33:01.046Z,27.92
2023-01-13T03:35:35.161Z,25.42
2023-01-13T03:38:28.317Z,24.67
2023-01-13T03:41:03.479Z,27.00
2023-01-13T03:44:00.918Z,32.50
2023-01-13T03:46:39.984Z,39.23
2023-01-13T03:49:13.229Z,32.80
2023-01-13T03:51:47.800Z,47.53
2023-01-13T03:54:20.237Z,46.05
2023-01-13T03:57:01.737Z,44.53
2023-01-13T03:59:38.780Z,44.80
2023-01-13T04:02:43.680Z,31.40
2023-01-13T04:05:11.974Z,24.27
2023-01-13T04:08:23.974Z,24.52
2023-01-13T04:11:02.438Z,27.30
2023-01-13T04:16:01.812Z,43.92
2023-01-13T04:18:31.627Z,49.88
2023-01-13T04:21:01.881Z,57.50
2023-01-13T04:23:29.780Z,53.22
2023-01-13T04:25:57.302Z,47.17
2023-01-13T04:28:26.572Z,35.35
2023-01-13T04:30:54.259Z,33.05
2023-01-13T04:33:21.867Z,31.23
2023-01-13T04:35:49.361Z,33.38
2023-01-13T04:38:20.791Z,30.27
2023-01-13T04:40:48.767Z,29.02
2023-01-13T04:43:16.353Z,24.83
2023-01-13T04:45:44.345Z,28.00
2023-01-13T04:48:12.339Z,31.48
2023-01-13T04:50:39.953Z,32.90
2023-01-13T04:53:07.772Z,57.75
2023-01-13T04:55:35.483Z,29.92
2023-01-13T04:58:08.719Z,35.33
2023-01-13T05:00:37.373Z,37.72
2023-01-13T05:05:32.845Z,41.95
2023-01-13T05:08:00.265Z,39.72
2023-01-13T05:10:27.751Z,30.20
2023-01-13T05:13:13.754Z,22.55
2023-01-13T05:16:01.763Z,20.17
2023-01-13T05:18:31.346Z,21.10
2023-01-13T05:20:58.691Z,19.58
2023-01-13T05:23:44.901Z,19.58
2023-01-13T05:26:12.418Z,15.70
2023-01-13T05:28:39.834Z,17.98
2023-01-13T05:31:07.314Z,18.88
2023-01-13T05:33:36.035Z,23.95
2023-01-13T05:36:03.942Z,22.10
2023-01-13T05:38:31.515Z,19.40
2023-01-13T05:41:18.715Z,16.23
2023-01-13T05:43:46.247Z,13.93
2023-01-13T05:46:14.900Z,13.50
2023-01-13T05:48:43.785Z,14.70
2023-01-13T05:51:13.065Z,16.00
2023-01-13T05:53:43.612Z,13.20
2023-01-13T05:56:11.718Z,13.70
2023-01-13T05:58:39.183Z,13.13
2023-01-13T06:01:09.079Z,13.75
2023-01-13T06:03:37.647Z,16.48
2023-01-13T06:06:05.354Z,14.35
2023-01-13T06:08:33.070Z,12.20
2023-01-13T06:11:00.544Z,13.77
2023-01-13T06:13:28.044Z,13.50
2023-01-13T06:15:58.121Z,14.70
2023-01-13T06:18:26.591Z,13.48
2023-01-13T06:20:54.297Z,13.15
2023-01-13T06:23:21.688Z,12.67
2023-01-13T06:26:17.511Z,13.70
2023-01-13T06:28:44.875Z,14.23
2023-01-13T06:31:12.751Z,15.13
2023-01-13T06:33:49.333Z,13.45
2023-01-13T06:36:29.318Z,12.73
2023-01-13T06:39:01.306Z,12.93
2023-01-13T06:41:50.634Z,13.23
2023-01-13T06:44:20.504Z,13.45
2023-01-13T06:46:48.097Z,9.98
2023-01-13T06:49:15.543Z,10.37
2023-01-13T06:51:43.129Z,9.75
2023-01-13T06:54:10.419Z,12.35
2023-01-13T06:56:37.754Z,9.93
2023-01-13T06:59:05.253Z,9.55
2023-01-13T07:01:32.848Z,8.63
2023-01-13T07:04:00.371Z,8.93
2023-01-13T07:06:27.795Z,8.77
2023-01-13T07:08:55.230Z,8.65
2023-01-13T07:11:22.991Z,7.78
2023-01-13T07:14:09.342Z,9.25
2023-01-13T07:16:36.918Z,11.80
2023-01-13T07:19:04.530Z,120.72
2023-01-13T07:21:32.062Z,161.53
2023-01-13T07:23:59.579Z,135.73
2023-01-13T07:26:26.961Z,140.25
2023-01-13T07:28:54.531Z,149.38
2023-01-13T07:31:22.196Z,139.90
2023-01-13T07:33:49.600Z,120.67
2023-01-13T07:36:17.082Z,184.73
2023-01-13T07:38:44.759Z,163.87
2023-01-13T07:41:33.226Z,166.37
2023-01-13T07:44:04.773Z,180.35
2023-01-13T07:46:33.336Z,166.38
2023-01-13T07:49:00.842Z,161.43
2023-01-13T07:51:28.516Z,160.30
2023-01-13T07:53:55.958Z,154.18
2023-01-13T07:56:23.388Z,157.88
2023-01-13T07:58:54.098Z,73.40
2023-01-13T08:01:21.822Z,32.58
2023-01-13T08:03:49.285Z,19.77
2023-01-13T08:06:16.678Z,17.40
2023-01-13T08:08:44.344Z,18.27
2023-01-13T08:11:11.779Z,16.93
2023-01-13T08:13:39.260Z,15.15
2023-01-13T08:16:11.698Z,20.00
2023-01-13T08:18:40.143Z,21.50
2023-01-13T08:21:13.964Z,17.25
2023-01-13T08:23:45.690Z,11.20
2023-01-13T08:26:17.269Z,13.18
2023-01-13T08:28:45.918Z,13.52
2023-01-13T08:31:17.093Z,14.10
2023-01-13T08:33:44.779Z,12.32
2023-01-13T08:36:12.849Z,12.10
2023-01-13T08:38:41.702Z,9.95
2023-01-13T08:41:16.103Z,8.03
2023-01-13T08:43:43.523Z,10.88
2023-01-13T08:46:11.547Z,92.27
2023-01-13T08:48:39.090Z,101.47
2023-01-13T08:51:09.520Z,78.80
2023-01-13T08:53:37.030Z,88.35
2023-01-13T08:56:13.190Z,79.83
2023-01-13T08:58:41.040Z,78.43
2023-01-13T09:01:11.330Z,96.85
2023-01-13T09:03:39.366Z,108.00
2023-01-13T09:06:07.173Z,101.97
2023-01-13T09:08:34.846Z,106.72
2023-01-13T09:11:22.473Z,116.22
2023-01-13T09:13:52.226Z,123.43
2023-01-13T09:16:19.623Z,148.65
2023-01-13T09:18:47.034Z,138.23
2023-01-13T09:21:15.164Z,142.57
2023-01-13T09:23:42.587Z,151.23
2023-01-13T09:26:11.581Z,163.60
2023-01-13T09:28:38.948Z,165.95
2023-01-13T09:31:06.384Z,156.82
2023-01-13T09:33:52.370Z,147.90
2023-01-13T09:36:21.391Z,140.15
2023-01-13T09:38:51.630Z,124.13
2023-01-13T09:41:41.329Z,110.35
2023-01-13T09:44:50.615Z,74.55
2023-01-13T09:47:30.673Z,99.55
2023-01-13T09:50:27.875Z,71.25
2023-01-13T09:52:55.875Z,48.30
2023-01-13T09:55:33.937Z,52.40
2023-01-13T09:58:08.758Z,50.92
2023-01-13T10:01:04.323Z,46.10
2023-01-13T10:03:33.756Z,57.20
2023-01-13T10:06:19.723Z,53.60
2023-01-13T10:08:49.262Z,48.65
2023-01-13T10:11:42.753Z,47.67
2023-01-13T10:14:28.231Z,35.08
2023-01-13T10:17:07.702Z,28.90
2023-01-13T10:19:50.582Z,39.35
2023-01-13T10:22:30.246Z,40.55
2023-01-13T10:25:21.904Z,31.27
2023-01-13T10:27:52.852Z,38.67
2023-01-13T10:30:32.126Z,31.40
2023-01-13T10:33:06.356Z,30.10
2023-01-13T10:36:13.259Z,27.70
2023-01-13T10:38:44.525Z,23.77
2023-01-13T10:41:14.841Z,20.08
2023-01-13T10:44:15.494Z,20.83
2023-01-13T10:46:58.844Z,20.35
2023-01-13T10:49:33.830Z,27.02
2023-01-13T10:52:03.319Z,26.50
2023-01-13T10:54:31.133Z,25.67
2023-01-13T10:57:21.000Z,24.00
2023-01-13T10:59:50.976Z,19.85
2023-01-13T11:02:31.775Z,19.38
2023-01-13T11:05:21.047Z,16.23
2023-01-13T11:07:54.324Z,17.20
2023-01-13T11:10:27.350Z,16.35
2023-01-13T11:14:01.511Z,17.58
2023-01-13T11:16:29.200Z,22.25
2023-01-13T11:19:13.803Z,22.53
2023-01-13T11:22:06.972Z,21.30
2023-01-13T11:24:54.998Z,21.95
2023-01-13T11:27:36.354Z,19.70
2023-01-13T11:30:50.845Z,20.95
2023-01-13T11:33:35.890Z,20.33
2023-01-13T11:36:21.278Z,15.85
2023-01-13T11:38:56.042Z,14.30
2023-01-13T11:42:24.241Z,15.77
2023-01-13T11:45:20.018Z,13.77
2023-01-13T11:47:52.571Z,17.20
2023-01-13T11:50:28.850Z,17.77
2023-01-13T11:53:24.962Z,15.35
2023-01-13T11:56:13.735Z,14.38
2023-01-13T11:59:11.143Z,18.63
2023-01-13T12:02:05.881Z,14.80
2023-01-13T12:04:58.110Z,12.05
2023-01-13T12:07:55.351Z,13.57
2023-01-13T12:10:31.523Z,14.57
2023-01-13T12:13:58.265Z,9.98
2023-01-13T12:16:30.486Z,10.93
2023-01-13T12:19:16.198Z,14.70
2023-01-13T12:22:13.449Z,15.15
2023-01-13T12:25:00.166Z,10.63
2023-01-13T12:27:33.242Z,10.88
2023-01-13T12:30:13.143Z,10.50
2023-01-13T12:32:41.755Z,10.38
2023-01-13T12:35:31.729Z,12.88
2023-01-13T12:38:32.857Z,11.38
2023-01-13T12:41:18.962Z,12.48
2023-01-13T12:44:07.971Z,10.73
2023-01-13T12:46:53.459Z,8.55
2023-01-13T12:49:30.918Z,7.63
2023-01-13T12:51:58.285Z,7.30
2023-01-13T12:54:37.667Z,10.18
2023-01-13T12:57:28.398Z,9.23
2023-01-13T13:00:05.015Z,9.40
2023-01-13T13:02:42.576Z,8.80
2023-01-13T13:05:25.364Z,11.77
2023-01-13T13:08:20.061Z,9.38
2023-01-13T13:10:59.216Z,10.77
2023-01-13T13:13:48.218Z,13.05
2023-01-13T13:16:29.110Z,8.30
2023-01-13T13:19:18.570Z,8.90
2023-01-13T13:22:14.436Z,8.50
2023-01-13T13:24:48.486Z,11.60
2023-01-13T13:27:40.979Z,11.23
2023-01-13T13:30:21.842Z,11.25
2023-01-13T13:32:57.933Z,9.23
2023-01-13T13:35:40.211Z,7.20
2023-01-13T13:38:59.260Z,8.85
2023-01-13T13:41:46.168Z,10.80
2023-01-13T13:44:38.901Z,10.82
2023-01-13T13:47:07.362Z,7.25
2023-01-13T13:49:44.870Z,8.35
2023-01-13T13:52:29.684Z,6.50
2023-01-13T13:55:08.419Z,8.35
2023-01-13T13:57:40.064Z,16.27
2023-01-13T14:00:19.785Z,11.40
2023-01-13T14:02:52.951Z,12.75
2023-01-13T14:05:30.214Z,9.55
2023-01-13T14:08:09.579Z,9.70
2023-01-13T14:10:40.826Z,10.32
2023-01-13T14:13:18.751Z,9.93
2023-01-13T14:15:49.313Z,31.75
2023-01-13T14:18:20.980Z,13.45
2023-01-13T14:20:59.524Z,59.55
2023-01-13T14:23:33.340Z,51.47
2023-01-13T14:26:13.211Z,14.90
2023-01-13T14:28:42.030Z,14.00
2023-01-13T14:31:10.584Z,15.90
2023-01-13T14:33:44.604Z,27.35
2023-01-13T14:36:24.656Z,17.88
2023-01-13T14:39:04.120Z,17.65
2023-01-13T14:41:42.249Z,18.63
2023-01-13T14:44:12.371Z,18.73
2023-01-13T14:46:45.901Z,17.95
2023-01-13T14:49:30.891Z,21.13
2023-01-13T14:52:20.129Z,15.63
2023-01-13T14:54:50.606Z,23.08
2023-01-13T14:57:31.399Z,17.90
2023-01-13T15:00:13.711Z,20.20
2023-01-13T15:02:53.482Z,18.77
2023-01-13T15:05:22.521Z,18.60
2023-01-13T15:08:05.244Z,32.72
2023-01-13T15:10:42.094Z,20.33
2023-01-13T15:13:29.796Z,28.05
2023-01-13T15:16:01.256Z,32.20
2023-01-13T15:18:28.713Z,34.53
2023-01-13T15:20:56.138Z,24.38
2023-01-13T15:23:23.982Z,26.63
2023-01-13T15:25:51.363Z,25.43
2023-01-13T15:28:25.348Z,27.70
2023-01-13T15:30:55.718Z,30.27
2023-01-13T15:33:23.314Z,30.65
2023-01-13T15:35:53.924Z,40.95
2023-01-13T15:38:24.611Z,112.97
2023-01-13T15:40:52.942Z,51.88
2023-01-13T15:43:41.965Z,39.25
2023-01-13T15:46:34.402Z,40.45
2023-01-13T15:49:25.232Z,37.83
2023-01-13T15:51:52.807Z,68.95
2023-01-13T15:54:23.060Z,68.78
2023-01-13T15:56:51.788Z,62.40
2023-01-13T15:59:24.133Z,62.75
2023-01-13T16:01:51.818Z,63.47
2023-01-13T16:04:19.305Z,62.30
2023-01-13T16:06:47.613Z,70.70
2023-01-13T16:09:16.922Z,92.30
2023-01-13T16:11:44.415Z,88.30
2023-01-13T16:14:11.856Z,87.15
2023-01-13T16:16:39.352Z,81.38
2023-01-13T16:19:06.766Z,72.57
2023-01-13T16:21:35.288Z,73.30
2023-01-13T16:26:30.282Z,63.45
2023-01-13T16:28:58.471Z,64.07
2023-01-13T16:31:32.157Z,63.08
2023-01-13T16:34:03.952Z,59.15
2023-01-13T16:36:35.965Z,61.55
2023-01-13T16:39:04.881Z,61.88
2023-01-13T16:41:34.038Z,70.45
2023-01-13T16:44:05.987Z,57.88
2023-01-13T16:46:33.886Z,51.67
2023-01-13T16:49:06.798Z,48.20
2023-01-13T16:51:34.144Z,41.83
2023-01-13T16:54:01.574Z,41.03
2023-01-13T16:56:32.588Z,48.28
2023-01-13T16:59:07.523Z,34.15
2023-01-13T17:01:38.728Z,23.38
2023-01-13T17:04:12.284Z,31.95
2023-01-13T17:06:52.441Z,41.58
2023-01-13T17:09:26.534Z,40.08
2023-01-13T17:11:55.177Z,46.00
2023-01-13T17:19:27.456Z,57.75
2023-01-13T17:21:54.920Z,59.92
2023-01-13T17:24:24.854Z,85.40
2023-01-13T17:26:52.347Z,97.13
2023-01-13T17:29:25.300Z,103.07
2023-01-13T17:31:53.105Z,113.93
2023-01-13T17:34:21.572Z,122.70
2023-01-13T17:36:49.071Z,169.52
2023-01-13T17:39:20.991Z,74.10
2023-01-13T17:41:48.621Z,75.25
2023-01-13T17:44:21.765Z,59.00
2023-01-13T17:46:49.940Z,57.83
2023-01-13T17:49:21.759Z,48.17
2023-01-13T17:51:51.144Z,39.90
2023-01-13T17:54:19.451Z,32.97
2023-01-13T17:56:46.987Z,24.77
2023-01-13T17:59:18.057Z,47.92
2023-01-13T18:01:46.358Z,133.10
2023-01-13T18:04:19.883Z,127.40
2023-01-13T18:06:48.479Z,72.93
2023-01-13T18:11:45.586Z,100.13
2023-01-13T18:14:14.439Z,75.07
2023-01-13T18:16:42.268Z,34.55
2023-01-13T18:19:29.563Z,29.58
2023-01-13T18:22:15.381Z,22.92
2023-01-13T18:25:01.279Z,21.30
2023-01-13T18:27:36.329Z,21.95
2023-01-13T18:30:05.090Z,27.65
2023-01-13T18:32:34.348Z,24.75
2023-01-13T18:35:06.656Z,25.55
2023-01-13T18:37:38.528Z,25.95
2023-01-13T18:40:09.416Z,30.58
2023-01-13T18:42:56.054Z,40.78
2023-01-13T18:45:27.662Z,55.90
2023-01-13T18:47:59.056Z,59.30
2023-01-13T18:50:28.251Z,63.28
2023-01-13T18:52:56.633Z,62.63
2023-01-13T18:55:24.675Z,59.10
2023-01-13T18:57:53.193Z,48.45
2023-01-13T19:00:22.465Z,38.05
2023-01-13T19:05:35.909Z,31.13
2023-01-13T19:08:04.859Z,29.92
2023-01-13T19:13:01.628Z,32.22
2023-01-13T19:15:29.130Z,25.50
2023-01-13T19:17:56.667Z,25.50
2023-01-13T19:20:24.200Z,24.42
2023-01-13T19:22:54.471Z,23.07
2023-01-13T19:25:22.235Z,19.45
2023-01-13T19:27:49.622Z,17.50
2023-01-13T19:30:17.483Z,19.83
2023-01-13T19:32:44.847Z,28.77
2023-01-13T19:35:17.372Z,30.77
2023-01-13T19:37:44.791Z,23.40
2023-01-13T19:40:15.897Z,20.58
2023-01-13T19:43:02.877Z,25.80
2023-01-13T19:45:33.592Z,22.40
2023-01-13T19:48:05.811Z,21.35
2023-01-13T19:50:41.358Z,19.55
2023-01-13T19:53:17.614Z,22.40
2023-01-13T19:55:49.253Z,26.55
2023-01-13T19:58:23.083Z,28.63
2023-01-13T20:00:52.307Z,53.45
2023-01-13T20:03:24.438Z,54.88
2023-01-13T20:05:53.433Z,32.80
2023-01-13T20:08:22.759Z,26.98
2023-01-13T20:10:50.226Z,28.10
2023-01-13T20:13:17.653Z,32.42
2023-01-13T20:15:45.189Z,28.90
2023-01-13T20:18:12.721Z,26.48
2023-01-13T20:20:40.143Z,28.50
2023-01-13T20:23:07.504Z,26.20
2023-01-13T20:25:35.014Z,21.00
2023-01-13T20:28:02.601Z,19.05
2023-01-13T20:30:29.971Z,18.73
2023-01-13T20:32:57.396Z,20.80
2023-01-13T20:35:29.554Z,22.73
2023-01-13T20:37:57.265Z,23.77
2023-01-13T20:40:24.721Z,29.60
2023-01-13T20:42:52.669Z,41.20
2023-01-13T20:45:23.503Z,61.17
2023-01-13T20:47:50.993Z,51.55
2023-01-13T20:50:18.553Z,79.07
2023-01-13T20:52:46.956Z,122.68
2023-01-13T20:55:14.931Z,95.95
2023-01-13T20:57:42.404Z,86.57
2023-01-13T21:00:10.946Z,64.63
2023-01-13T21:05:08.798Z,41.75
2023-01-13T21:07:36.230Z,52.13
2023-01-13T21:10:04.512Z,39.40
2023-01-13T21:13:07.019Z,37.47
2023-01-13T21:15:34.886Z,41.50
2023-01-13T21:18:21.136Z,42.90
2023-01-13T21:20:50.797Z,36.38
2023-01-13T21:23:18.299Z,34.30
2023-01-13T21:25:45.650Z,35.63
2023-01-13T21:28:14.015Z,28.85
2023-01-13T21:30:41.566Z,30.05
2023-01-13T21:33:14.083Z,24.45
2023-01-13T21:35:41.477Z,23.52
2023-01-13T21:38:11.131Z,23.38
2023-01-13T21:40:38.494Z,26.08
2023-01-13T21:43:24.380Z,30.02
2023-01-13T21:46:10.480Z,33.40
2023-01-13T21:48:37.923Z,44.17
2023-01-13T21:51:05.544Z,29.85
2023-01-13T21:53:32.954Z,29.50
2023-01-13T21:56:00.303Z,25.02
2023-01-13T21:58:27.666Z,25.25
2023-01-13T22:00:55.220Z,26.52
2023-01-13T22:03:22.695Z,29.10
2023-01-13T22:05:56.477Z,27.38
2023-01-13T22:08:23.919Z,26.63
2023-01-13T22:10:57.361Z,27.98
2023-01-13T22:13:46.240Z,28.00
2023-01-13T22:16:15.677Z,27.70
2023-01-13T22:18:43.203Z,28.13
2023-01-13T22:21:11.159Z,28.55
2023-01-13T22:23:38.629Z,27.52
2023-01-13T22:26:07.759Z,27.38
2023-01-13T22:28:44.737Z,27.20
2023-01-13T22:31:21.062Z,25.85
2023-01-13T22:33:48.569Z,25.52
2023-01-13T22:36:15.947Z,26.63
2023-01-13T22:38:43.446Z,28.70
2023-01-13T22:41:11.039Z,26.55
2023-01-13T22:43:38.726Z,22.67
2023-01-13T22:46:10.836Z,23.93
2023-01-13T22:48:40.215Z,22.48
2023-01-13T22:51:14.458Z,20.63
2023-01-13T22:53:42.857Z,21.27
2023-01-13T22:56:18.600Z,40.15
2023-01-13T22:58:46.243Z,28.20
2023-01-13T23:01:17.188Z,20.27
2023-01-13T23:03:47.877Z,22.65
2023-01-13T23:06:18.240Z,24.08
2023-01-13T23:08:47.299Z,24.00
2023-01-13T23:11:18.409Z,27.30
2023-01-13T23:13:46.573Z,29.25
2023-01-13T23:16:19.369Z,27.85
2023-01-13T23:18:48.587Z,24.40
2023-01-13T23:21:29.620Z,25.75
2023-01-13T23:23:58.778Z,27.23
2023-01-13T23:26:28.471Z,27.45
2023-01-13T23:29:08.930Z,25.90
2023-01-13T23:31:36.399Z,26.27
2023-01-13T23:34:03.822Z,25.50
2023-01-13T23:36:31.393Z,25.92
2023-01-13T23:38:59.960Z,27.13
2023-01-13T23:43:59.616Z,23.33
2023-01-13T23:46:30.197Z,21.20
2023-01-13T23:48:57.732Z,19.92
2023-01-13T23:51:26.512Z,20.38
2023-01-13T23:53:54.579Z,20.90
2023-01-13T23:56:31.078Z,19.35
2023-01-13T23:58:59.251Z,18.38
